Time;durP1;ratioP1;P1;durP2;ratioP2;P2;SDS_P1;SDS_P2;PMS_P1;PMS_P2;Temp;Humidity;BMP_temperature;BMP_pressure;BME280_temperature;BME280_humidity;BME280_pressure;Samples;Min_cycle;Max_cycle;Signal;HPM_P1;HPM_P2
2022/05/20 00:00:43;;;;;;;1.42;0.90;;;;;;;17.67;30.32;97031.41;1758549;79;21059;-84
2022/05/20 00:03:09;;;;;;;3.02;0.90;;;;;;;17.67;30.31;97025.64;1778254;80;21110;-84
2022/05/20 00:05:35;;;;;;;3.22;0.70;;;;;;;17.70;30.15;97026.56;1791377;80;20984;-84
2022/05/20 00:08:01;;;;;;;1.82;0.93;;;;;;;17.73;29.53;97016.13;1786153;78;21075;-84
2022/05/20 00:10:30;;;;;;;1.72;1.00;;;;;;;17.75;29.79;97012.80;1791284;80;21497;-84
2022/05/20 00:12:56;;;;;;;3.45;0.95;;;;;;;17.76;30.05;97011.79;1787412;79;20968;-84
2022/05/20 00:15:25;;;;;;;2.90;0.95;;;;;;;17.75;30.00;97022.00;1785523;79;21403;-84
2022/05/20 00:17:51;;;;;;;5.08;0.88;;;;;;;17.76;30.03;97035.44;1776277;80;20972;-84
2022/05/20 00:20:18;;;;;;;1.32;0.80;;;;;;;17.77;29.75;97019.97;1761912;80;21460;-84
2022/05/20 00:22:44;;;;;;;1.22;0.72;;;;;;;17.78;29.75;97026.84;1790914;78;21374;-84
2022/05/20 00:27:56;;;;;;;2.80;0.88;;;;;;;17.75;29.83;97025.95;1785354;79;21075;-84
2022/05/20 00:30:22;;;;;;;1.20;0.88;;;;;;;17.73;29.67;97027.95;1788705;79;21361;-84
2022/05/20 00:32:48;;;;;;;2.00;0.88;;;;;;;17.74;30.16;97023.02;1790205;79;20991;-83
2022/05/20 00:35:14;;;;;;;1.62;0.80;;;;;;;17.73;30.05;97015.32;1736970;81;21037;-83
2022/05/20 00:37:44;;;;;;;1.15;0.80;;;;;;;17.73;30.25;97019.27;1789809;79;21531;-84
2022/05/20 00:40:09;;;;;;;1.67;1.10;;;;;;;17.74;30.13;97018.28;1787142;79;21373;-84
2022/05/20 00:42:35;;;;;;;4.05;1.00;;;;;;;17.73;30.24;97012.19;1787100;79;21355;-84
2022/05/20 00:45:04;;;;;;;4.00;0.93;;;;;;;17.75;30.25;97012.80;1788815;78;20988;-83
2022/05/20 00:47:30;;;;;;;2.37;0.80;;;;;;;17.77;30.18;97018.66;1760632;80;21035;-83
2022/05/20 00:49:56;;;;;;;1.32;0.70;;;;;;;17.79;30.17;97011.88;1761858;80;21035;-83
2022/05/20 00:52:24;;;;;;;1.62;0.57;;;;;;;17.78;29.95;97012.89;1769995;80;21050;-84
2022/05/20 00:54:54;;;;;;;1.50;0.90;;;;;;;17.78;30.16;97008.44;1739567;80;21115;-84
2022/05/20 00:57:24;;;;;;;1.45;0.53;;;;;;;17.79;30.23;97007.92;1747207;79;21099;-84
2022/05/20 00:59:55;;;;;;;3.65;0.72;;;;;;;17.81;30.05;97017.20;1752854;80;21007;-84
2022/05/20 01:02:21;;;;;;;2.65;0.85;;;;;;;17.82;30.46;97017.50;1769536;80;21015;-84
2022/05/20 01:04:47;;;;;;;0.72;0.68;;;;;;;17.81;30.20;97015.09;1764359;79;21094;-84
2022/05/20 01:07:13;;;;;;;3.00;0.80;;;;;;;17.80;30.13;97016.11;1757697;80;21355;-84
2022/05/20 01:09:39;;;;;;;2.15;0.72;;;;;;;17.82;30.26;97012.75;1753042;80;20999;-84
2022/05/20 01:12:05;;;;;;;2.83;1.00;;;;;;;17.83;30.23;97005.16;1778597;80;21116;-84
2022/05/20 01:14:31;;;;;;;1.30;0.60;;;;;;;17.84;30.36;97002.83;1747803;80;21467;-84
2022/05/20 01:16:56;;;;;;;2.75;0.82;;;;;;;17.84;30.17;96998.89;1743267;81;21028;-84
2022/05/20 01:19:47;;;;;;;1.25;0.60;;;;;;;17.84;30.30;97012.83;1792117;79;21086;-84
2022/05/20 01:22:14;;;;;;;3.15;0.80;;;;;;;17.87;30.17;96998.45;1789620;79;20984;-84
2022/05/20 01:24:39;;;;;;;1.00;0.80;;;;;;;17.86;30.24;97006.05;1748212;80;21015;-83
2022/05/20 01:27:06;;;;;;;2.52;0.70;;;;;;;17.86;30.38;97006.05;1776760;80;20977;-83
2022/05/20 01:29:31;;;;;;;2.55;0.80;;;;;;;17.87;30.73;97016.86;1764740;79;21354;-83
2022/05/20 01:31:57;;;;;;;2.10;0.70;;;;;;;17.84;30.39;97010.20;1780068;80;21007;-83
2022/05/20 01:34:23;;;;;;;1.27;0.80;;;;;;;17.86;30.44;97004.73;1747502;80;21078;-84
2022/05/20 01:36:49;;;;;;;4.17;0.93;;;;;;;17.89;30.52;96998.53;1769981;79;20988;-83
2022/05/20 01:39:16;;;;;;;3.25;0.90;;;;;;;17.90;30.73;96994.92;1767844;80;21031;-84
2022/05/20 01:41:54;;;;;;;2.27;0.90;;;;;;;17.90;30.75;97002.80;1740592;80;21990;-84
2022/05/20 01:44:30;;;;;;;1.85;0.85;;;;;;;17.89;30.87;97006.42;1767815;79;21074;-84
2022/05/20 01:47:22;;;;;;;5.50;0.68;;;;;;;17.88;31.04;96998.75;1776726;80;21069;-84
2022/05/20 01:50:06;;;;;;;2.02;0.70;;;;;;;17.85;30.98;96982.90;1756703;80;21094;-83
2022/05/20 01:52:52;;;;;;;1.20;0.85;;;;;;;17.82;31.26;96985.95;1742900;80;21358;-83
2022/05/20 01:55:50;;;;;;;0.80;0.62;;;;;;;17.81;31.02;96992.23;1787455;79;21007;-84
2022/05/20 01:58:30;;;;;;;2.17;0.88;;;;;;;17.84;31.16;96998.37;1786964;80;21082;-84
2022/05/20 02:00:58;;;;;;;3.83;0.75;;;;;;;17.85;31.17;96988.67;1787927;79;21087;-84
2022/05/20 02:03:36;;;;;;;2.58;0.70;;;;;;;17.83;31.27;96988.08;1753548;81;21427;-84
2022/05/20 02:06:19;;;;;;;1.25;0.70;;;;;;;17.83;31.36;96991.51;1762431;80;21028;-83
2022/05/20 02:09:04;;;;;;;1.57;0.93;;;;;;;17.82;31.29;96987.78;1779803;79;21030;-83
2022/05/20 02:11:47;;;;;;;1.82;0.80;;;;;;;17.84;31.33;96993.12;1790903;80;20964;-83
2022/05/20 02:14:21;;;;;;;1.37;0.70;;;;;;;17.83;31.43;96982.82;1788035;80;21052;-84
2022/05/20 02:17:07;;;;;;;1.37;0.90;;;;;;;17.85;31.42;96986.84;1757897;80;21011;-83
2022/05/20 02:19:47;;;;;;;1.62;0.70;;;;;;;17.86;31.64;96984.51;1784565;79;21349;-84
2022/05/20 02:22:18;;;;;;;5.42;0.80;;;;;;;17.88;31.80;96987.72;1791045;78;21507;-84
2022/05/20 02:24:44;;;;;;;3.27;1.13;;;;;;;17.84;32.06;96977.86;1729441;80;20979;-84
2022/05/20 02:27:16;;;;;;;1.82;0.70;;;;;;;17.79;31.82;96978.50;1780857;80;21023;-84
2022/05/20 02:29:52;;;;;;;3.12;1.00;;;;;;;17.78;32.23;96959.81;1786170;79;21115;-84
2022/05/20 02:32:36;;;;;;;1.57;0.90;;;;;;;17.81;31.81;96970.41;1786462;80;21115;-84
2022/05/20 02:35:04;;;;;;;1.85;1.00;;;;;;;17.82;32.06;96964.93;1788991;79;21008;-84
2022/05/20 02:37:35;;;;;;;2.40;0.80;;;;;;;17.85;32.06;96970.27;1752344;79;21410;-83
2022/05/20 02:40:01;;;;;;;2.08;0.80;;;;;;;17.88;32.20;96977.21;1763953;80;21091;-84
2022/05/20 02:42:28;;;;;;;1.60;0.98;;;;;;;17.91;32.11;96976.81;1757496;80;20957;-83
2022/05/20 02:44:59;;;;;;;1.65;0.70;;;;;;;17.95;32.10;96978.50;1758230;79;21012;-84
2022/05/20 02:47:31;;;;;;;1.45;0.80;;;;;;;17.98;32.07;96976.23;1756797;79;21082;-83
2022/05/20 02:49:55;;;;;;;1.37;0.90;;;;;;;18.05;32.07;96980.13;1760214;80;20996;-84
2022/05/20 02:52:21;;;;;;;3.30;1.10;;;;;;;18.07;32.00;96967.59;1783032;80;21004;-84
2022/05/20 02:54:47;;;;;;;2.30;0.80;;;;;;;18.13;32.11;96975.13;1755152;79;20960;-83
2022/05/20 02:57:13;;;;;;;2.00;0.85;;;;;;;18.23;32.23;96980.71;1770288;80;21419;-83
2022/05/20 03:05:08;;;;;;;2.50;0.90;;;;;;;18.15;33.94;96961.24;1742196;81;21043;-83
2022/05/20 03:07:34;;;;;;;1.35;0.75;;;;;;;18.16;33.61;96985.20;1789003;77;21059;-84
2022/05/20 03:10:00;;;;;;;2.20;1.30;;;;;;;18.17;33.52;96961.83;1781161;80;21111;-84
2022/05/20 03:12:26;;;;;;;1.98;1.12;;;;;;;18.21;33.73;96972.20;1775260;79;21150;-83
2022/05/20 03:14:52;;;;;;;1.82;0.90;;;;;;;18.26;33.71;96973.19;1769483;80;21044;-84
2022/05/20 03:17:18;;;;;;;4.05;1.02;;;;;;;18.39;33.63;96970.96;1754983;80;21087;-84
2022/05/20 03:19:44;;;;;;;1.52;0.90;;;;;;;18.52;34.86;96972.64;1774830;79;21463;-84
2022/05/20 03:22:09;;;;;;;2.27;1.00;;;;;;;18.57;34.27;96978.88;1747858;80;21048;-84
2022/05/20 03:24:35;;;;;;;2.27;1.20;;;;;;;18.62;34.29;96984.00;1778605;80;21071;-83
2022/05/20 03:27:01;;;;;;;2.30;1.32;;;;;;;18.67;33.87;96975.77;1761693;79;20996;-84
2022/05/20 03:29:27;;;;;;;4.67;1.00;;;;;;;18.72;34.75;96977.77;1757006;80;21001;-84
2022/05/20 03:31:53;;;;;;;1.62;1.17;;;;;;;18.72;35.29;96968.03;1760434;80;21059;-84
2022/05/20 03:34:19;;;;;;;1.55;1.05;;;;;;;18.75;34.70;96975.48;1754315;79;21402;-83
2022/05/20 03:36:48;;;;;;;1.80;1.12;;;;;;;18.82;34.96;96970.95;1768670;80;21032;-83
2022/05/20 03:39:19;;;;;;;2.60;1.20;;;;;;;18.87;35.39;96978.17;1781754;79;21011;-84
2022/05/20 03:41:46;;;;;;;2.50;1.15;;;;;;;18.89;35.17;96978.79;1773847;80;21024;-84
2022/05/20 03:44:14;;;;;;;2.52;1.30;;;;;;;18.95;36.44;96968.69;1756993;80;21376;-84
2022/05/20 03:46:46;;;;;;;1.92;1.25;;;;;;;18.95;36.09;96971.32;1764924;79;21103;-84
2022/05/20 03:49:13;;;;;;;3.90;1.30;;;;;;;18.92;36.68;96980.17;1768525;79;21031;-83
2022/05/20 03:51:40;;;;;;;1.90;1.10;;;;;;;18.91;35.99;96977.25;1781656;80;21019;-83
2022/05/20 03:54:07;;;;;;;3.58;1.12;;;;;;;18.97;37.05;96978.48;1760910;79;21055;-83
2022/05/20 03:56:33;;;;;;;1.90;1.15;;;;;;;18.94;37.47;96977.61;1748250;81;21456;-83
2022/05/20 03:58:59;;;;;;;3.83;1.00;;;;;;;18.87;37.66;96980.81;1767799;80;21047;-83
2022/05/20 04:04:09;;;;;;;2.33;1.32;;;;;;;18.82;38.97;96981.98;1753999;80;21023;-83
2022/05/20 04:06:35;;;;;;;2.55;1.27;;;;;;;18.77;37.63;96988.43;1746427;82;21346;-84
2022/05/20 04:09:01;;;;;;;2.10;1.60;;;;;;;18.81;37.75;96989.59;1779174;79;20969;-83
2022/05/20 04:11:27;;;;;;;2.70;1.20;;;;;;;18.82;38.00;96988.57;1747506;80;21035;-83
2022/05/20 04:13:53;;;;;;;3.02;1.22;;;;;;;18.80;38.32;96990.11;1777925;80;20989;-83
2022/05/20 04:16:19;;;;;;;2.77;1.35;;;;;;;18.76;38.61;96993.41;1775337;80;20965;-83
2022/05/20 04:18:45;;;;;;;1.90;1.42;;;;;;;18.71;39.54;96993.23;1775574;80;20976;-83
2022/05/20 04:21:12;;;;;;;3.75;1.30;;;;;;;18.66;38.79;96991.78;1760269;79;20992;-83
2022/05/20 04:23:40;;;;;;;3.87;1.60;;;;;;;18.65;39.61;96991.48;1738159;79;21016;-83
2022/05/20 04:26:06;;;;;;;2.40;1.25;;;;;;;18.64;38.67;96997.77;1734395;80;21062;-83
2022/05/20 04:28:32;;;;;;;1.60;1.17;;;;;;;18.64;38.91;97003.84;1735863;81;21039;-83
2022/05/20 04:31:01;;;;;;;1.60;1.40;;;;;;;18.64;40.04;96997.77;1709320;82;21048;-83
2022/05/20 04:33:26;;;;;;;2.55;1.22;;;;;;;18.59;41.13;97003.66;1745961;80;21023;-83
2022/05/20 04:35:52;;;;;;;3.27;1.65;;;;;;;18.51;42.13;97001.30;1790171;80;21129;-83
2022/05/20 04:38:18;;;;;;;3.05;1.40;;;;;;;18.45;40.28;97006.12;1788728;80;21043;-83
2022/05/20 04:40:44;;;;;;;2.55;1.45;;;;;;;18.52;40.14;97005.53;1791525;80;21387;-83
2022/05/20 04:48:39;;;;;;;3.27;1.20;;;;;;;18.55;42.36;96977.49;1787644;79;20987;-83
2022/05/20 04:51:05;;;;;;;3.15;1.30;;;;;;;18.50;41.99;96976.00;1789738;80;21026;-83
2022/05/20 04:56:16;;;;;;;1.92;1.32;;;;;;;18.47;43.40;96972.50;1788239;80;21035;-83
2022/05/20 04:58:42;;;;;;;3.62;1.95;;;;;;;18.48;42.13;96966.20;1790515;80;21469;-83
2022/05/20 05:01:08;;;;;;;2.65;1.27;;;;;;;18.48;44.20;96968.84;1780824;79;20995;-83
2022/05/20 05:03:34;;;;;;;2.90;1.40;;;;;;;18.42;44.58;96963.14;1786031;79;21063;-83
2022/05/20 05:05:59;;;;;;;2.98;1.32;;;;;;;18.35;44.68;96959.75;1787313;80;21498;-83
2022/05/20 05:08:25;;;;;;;3.05;1.10;;;;;;;18.32;44.49;96954.41;1791569;78;21059;-83
2022/05/20 05:10:52;;;;;;;2.90;1.75;;;;;;;18.32;44.53;96954.92;1785322;79;21098;-83
2022/05/20 05:13:18;;;;;;;3.45;1.70;;;;;;;18.37;43.24;96959.82;1790977;79;21116;-83
2022/05/20 05:15:44;;;;;;;2.60;1.40;;;;;;;18.48;43.20;96959.13;1780256;79;20987;-83
2022/05/20 05:18:12;;;;;;;2.12;1.30;;;;;;;18.63;44.63;96959.28;1787946;79;20999;-83
2022/05/20 05:20:50;;;;;;;2.42;1.40;;;;;;;18.71;43.32;96961.64;1788779;79;21008;-83
2022/05/20 05:23:16;;;;;;;2.85;1.30;;;;;;;18.77;43.41;96959.47;1785209;79;21080;-83
2022/05/20 05:25:42;;;;;;;1.60;1.12;;;;;;;18.81;44.31;96956.69;1789169;79;21055;-83
2022/05/20 05:28:08;;;;;;;1.95;1.32;;;;;;;18.88;43.11;96957.44;1787671;78;20976;-83
2022/05/20 05:30:34;;;;;;;2.92;1.17;;;;;;;18.96;44.20;96966.34;1784983;79;21035;-83
2022/05/20 05:33:00;;;;;;;1.65;1.35;;;;;;;19.00;45.48;96966.19;1784104;78;21406;-83
2022/05/20 05:35:28;;;;;;;2.00;1.30;;;;;;;19.06;43.07;96982.95;1779838;77;21094;-83
2022/05/20 05:37:54;;;;;;;3.27;1.27;;;;;;;19.17;42.70;97007.22;1781792;79;21039;-83
2022/05/20 05:40:23;;;;;;;2.15;1.32;;;;;;;19.24;42.98;97012.43;1790889;80;21042;-83
2022/05/20 05:42:49;;;;;;;3.95;1.85;;;;;;;19.39;43.51;97020.76;1779436;78;21000;-83
2022/05/20 05:45:20;;;;;;;5.87;1.60;;;;;;;19.45;42.65;97021.98;1787514;80;21434;-83
2022/05/20 05:47:56;;;;;;;3.33;2.05;;;;;;;19.58;42.11;97030.78;1787927;79;21080;-83
2022/05/20 05:50:22;;;;;;;2.47;1.60;;;;;;;19.67;41.16;97034.19;1751548;79;21062;-83
2022/05/20 05:53:02;;;;;;;4.80;2.12;;;;;;;19.79;41.03;97036.37;1788282;79;21071;-83
2022/05/20 05:55:29;;;;;;;3.08;2.10;;;;;;;19.87;41.08;97039.73;1779674;79;20995;-83
2022/05/20 05:57:55;;;;;;;3.85;1.57;;;;;;;19.91;41.41;97045.65;1783922;79;21035;-83
2022/05/20 06:00:22;;;;;;;2.67;1.55;;;;;;;19.93;40.99;97054.65;1777391;78;21078;-83
2022/05/20 06:02:48;;;;;;;3.72;1.70;;;;;;;19.95;40.82;97052.59;1779226;79;20975;-83
2022/05/20 06:05:14;;;;;;;2.17;1.30;;;;;;;19.98;40.68;97042.39;1769053;78;21006;-83
2022/05/20 06:07:39;;;;;;;2.27;1.35;;;;;;;20.04;40.30;97041.51;1768237;77;21035;-83
2022/05/20 06:10:06;;;;;;;2.15;1.70;;;;;;;20.11;40.36;97047.19;1760498;79;20948;-83
2022/05/20 06:12:33;;;;;;;3.05;1.32;;;;;;;20.14;40.73;97042.78;1779769;78;21019;-83
2022/05/20 06:15:07;;;;;;;2.62;1.60;;;;;;;20.15;40.93;97049.66;1787539;78;22150;-83
2022/05/20 06:17:33;;;;;;;2.30;1.50;;;;;;;20.20;41.17;97051.93;1788859;79;21517;-84
2022/05/20 06:19:59;;;;;;;3.17;1.60;;;;;;;20.28;40.89;97051.59;1783393;79;20980;-83
2022/05/20 06:22:26;;;;;;;2.90;1.55;;;;;;;20.39;40.18;97051.33;1789275;78;21019;-84
2022/05/20 06:24:52;;;;;;;4.97;1.95;;;;;;;20.54;40.59;97050.92;1773768;78;21067;-83
2022/05/20 06:27:18;;;;;;;4.65;1.62;;;;;;;20.73;40.57;97051.09;1786284;78;20972;-83
2022/05/20 06:29:47;;;;;;;2.27;1.70;;;;;;;20.93;40.39;97055.51;1784339;79;21437;-83
2022/05/20 06:32:13;;;;;;;4.22;1.60;;;;;;;21.11;40.45;97047.16;1786296;78;20995;-84
2022/05/20 06:40:10;;;;;;;3.80;1.80;;;;;;;21.38;39.50;97052.78;1745508;79;21111;-84
2022/05/20 06:42:36;;;;;;;3.95;2.05;;;;;;;21.43;40.01;97059.48;1756662;81;21125;-84
2022/05/20 06:45:02;;;;;;;4.55;2.80;;;;;;;21.49;39.95;97064.66;1697675;83;21500;-83
2022/05/20 06:47:27;;;;;;;5.85;4.58;;;;;;;21.60;39.89;97052.42;1759628;79;21417;-86
2022/05/20 06:49:53;;;;;;;7.58;4.47;;;;;;;21.70;40.52;97061.08;1788263;79;21350;-85
2022/05/20 06:52:19;;;;;;;2.25;1.75;;;;;;;21.81;40.56;97065.53;1784230;80;21062;-85
2022/05/20 06:54:44;;;;;;;5.05;4.12;;;;;;;21.87;39.43;97065.38;1782297;79;20988;-84
2022/05/20 06:57:10;;;;;;;4.42;3.30;;;;;;;21.96;39.95;97068.44;1769755;80;20972;-84
2022/05/20 06:59:36;;;;;;;3.40;2.40;;;;;;;22.07;40.77;97071.59;1713644;82;21006;-85
2022/05/20 07:02:02;;;;;;;2.87;1.70;;;;;;;22.23;40.68;97082.44;1772874;80;20992;-84
2022/05/20 07:04:33;;;;;;;4.08;1.60;;;;;;;22.31;40.39;97086.04;1780535;80;21050;-84
2022/05/20 07:06:59;;;;;;;2.73;1.30;;;;;;;22.34;39.45;97086.88;1754365;80;21134;-84
2022/05/20 07:09:25;;;;;;;9.95;5.50;;;;;;;22.31;39.70;97086.84;1765098;80;21436;-85
2022/05/20 07:11:52;;;;;;;5.95;3.72;;;;;;;22.28;39.24;97087.81;1774602;80;20992;-84
2022/05/20 07:14:18;;;;;;;3.15;2.08;;;;;;;22.24;39.78;97084.05;1727731;79;21009;-84
2022/05/20 07:16:43;;;;;;;2.67;1.80;;;;;;;22.25;39.94;97085.65;1757210;79;21435;-84
2022/05/20 07:19:10;;;;;;;5.17;3.35;;;;;;;22.27;40.22;97083.56;1767217;79;20996;-85
2022/05/20 07:21:36;;;;;;;3.27;1.92;;;;;;;22.29;40.44;97089.42;1748978;79;20976;-85
2022/05/20 07:24:04;;;;;;;4.33;2.50;;;;;;;22.30;40.33;97091.05;1755690;79;20992;-85
2022/05/20 07:26:31;;;;;;;11.83;5.58;;;;;;;22.35;41.17;97089.80;1776010;80;21047;-85
2022/05/20 07:28:57;;;;;;;5.50;3.05;;;;;;;22.39;40.93;97096.22;1756102;80;21425;-84
2022/05/20 07:31:24;;;;;;;4.45;2.58;;;;;;;22.38;41.23;97091.45;1779685;80;21059;-84
2022/05/20 07:33:51;;;;;;;2.62;1.50;;;;;;;22.41;40.41;97101.56;1769942;80;21353;-85
2022/05/20 07:36:17;;;;;;;4.30;2.75;;;;;;;22.41;40.07;97099.43;1758285;80;21079;-84
2022/05/20 07:38:43;;;;;;;4.80;1.80;;;;;;;22.44;40.05;97101.08;1722673;81;21075;-84
2022/05/20 07:41:09;;;;;;;3.45;2.35;;;;;;;22.49;39.94;97100.38;1704141;81;21440;-84
2022/05/20 07:43:35;;;;;;;4.47;2.75;;;;;;;22.49;40.41;97097.73;1755271;80;21065;-85
2022/05/20 07:46:01;;;;;;;6.12;3.65;;;;;;;22.50;39.92;97099.33;1773143;79;21107;-84
2022/05/20 07:48:26;;;;;;;8.18;5.25;;;;;;;22.48;40.40;97094.00;1759823;79;21079;-84
2022/05/20 07:51:00;;;;;;;18.10;10.20;;;;;;;22.39;39.49;97092.25;1749073;82;21513;-84
2022/05/20 07:53:37;;;;;;;6.28;3.80;;;;;;;22.31;40.19;97092.14;1757136;80;21446;-84
2022/05/20 07:56:20;;;;;;;5.62;2.52;;;;;;;22.29;40.38;97093.39;1787025;80;21391;-84
2022/05/20 07:58:53;;;;;;;9.13;4.97;;;;;;;22.25;39.96;97093.07;1767165;80;21417;-85
2022/05/20 08:01:29;;;;;;;9.78;5.15;;;;;;;22.22;40.34;97098.84;1753310;81;21016;-84
2022/05/20 08:06:43;;;;;;;4.33;2.92;;;;;;;22.21;42.17;97101.21;1786554;79;21032;-84
2022/05/20 08:09:09;;;;;;;4.33;2.02;;;;;;;22.16;41.02;97095.84;1787196;78;21091;-85
2022/05/20 08:11:35;;;;;;;14.55;8.03;;;;;;;22.15;41.59;97102.17;1785544;80;21051;-84
2022/05/20 08:14:01;;;;;;;9.88;5.42;;;;;;;22.10;41.27;97098.09;1788483;79;21004;-84
2022/05/20 08:16:27;;;;;;;14.23;8.30;;;;;;;22.03;40.44;97096.89;1786502;79;21056;-84
2022/05/20 08:18:53;;;;;;;9.28;5.58;;;;;;;21.99;41.11;97087.03;1784029;79;21019;-84
2022/05/20 08:21:20;;;;;;;4.97;2.70;;;;;;;21.97;41.14;97091.76;1788427;80;21454;-85
2022/05/20 08:23:46;;;;;;;7.17;3.40;;;;;;;21.93;40.75;97084.78;1787463;79;21114;-84
2022/05/20 08:26:16;;;;;;;8.20;4.83;;;;;;;21.99;41.45;97089.16;1787515;78;21087;-84
2022/05/20 08:28:40;;;;;;;6.22;3.85;;;;;;;22.20;41.45;97085.05;1784226;79;21120;-84
2022/05/20 08:31:06;;;;;;;9.30;5.00;;;;;;;22.47;40.91;97082.61;1786009;79;22202;-84
2022/05/20 08:33:32;;;;;;;4.83;3.40;;;;;;;22.77;41.28;97083.06;1787260;80;21008;-84
2022/05/20 08:35:58;;;;;;;3.67;2.20;;;;;;;23.03;40.01;97076.84;1790027;80;21398;-84
2022/05/20 08:38:25;;;;;;;2.58;2.30;;;;;;;23.20;40.72;97078.94;1785251;79;21071;-84
2022/05/20 08:40:51;;;;;;;3.52;1.80;;;;;;;23.33;39.43;97073.81;1787669;78;21497;-85
2022/05/20 08:43:22;;;;;;;3.37;1.62;;;;;;;23.41;38.90;97073.89;1788882;80;21067;-84
2022/05/20 08:45:47;;;;;;;1.92;1.62;;;;;;;23.59;38.89;97071.80;1780191;79;21368;-84
2022/05/20 08:48:13;;;;;;;2.55;1.47;;;;;;;23.81;38.88;97073.09;1790055;79;20983;-84
2022/05/20 08:50:52;;;;;;;2.05;1.55;;;;;;;24.04;38.99;97064.55;1767910;80;21075;-84
2022/05/20 08:53:35;;;;;;;7.25;2.27;;;;;;;24.22;39.05;97066.84;1764974;81;20993;-84
2022/05/20 08:56:06;;;;;;;2.80;1.30;;;;;;;24.43;39.88;97072.66;1752571;80;20977;-84
2022/05/20 08:58:32;;;;;;;2.52;1.60;;;;;;;24.57;39.26;97073.55;1789374;79;21007;-84
2022/05/20 09:00:58;;;;;;;1.85;1.30;;;;;;;24.69;38.79;97076.83;1780533;80;21447;-84
2022/05/20 09:03:26;;;;;;;3.98;1.80;;;;;;;24.88;39.54;97077.22;1789488;78;21079;-85
2022/05/20 09:06:07;;;;;;;3.47;1.60;;;;;;;25.08;39.32;97079.53;1787920;80;21013;-85
2022/05/20 09:08:34;;;;;;;3.08;1.55;;;;;;;25.19;38.50;97079.05;1758833;79;21064;-84
2022/05/20 09:11:03;;;;;;;3.22;1.77;;;;;;;25.39;37.93;97073.05;1779098;79;21028;-84
2022/05/20 09:16:29;;;;;;;5.87;2.42;;;;;;;25.59;37.80;97062.48;1754443;80;21383;-84
2022/05/20 09:19:10;;;;;;;3.12;1.77;;;;;;;25.51;37.99;97055.52;1785267;79;21104;-84
2022/05/20 09:21:41;;;;;;;3.58;1.60;;;;;;;25.43;37.91;97057.63;1784593;79;21086;-84
2022/05/20 09:24:22;;;;;;;4.70;2.20;;;;;;;25.46;37.86;97054.17;1783205;79;21004;-85
2022/05/20 09:27:05;;;;;;;3.95;1.60;;;;;;;25.43;38.02;97052.84;1779679;80;21048;-84
2022/05/20 09:29:42;;;;;;;3.30;1.57;;;;;;;25.34;37.76;97059.70;1782776;79;21438;-85
2022/05/20 09:32:43;;;;;;;4.55;2.17;;;;;;;25.35;38.19;97054.66;1786673;79;21074;-84
2022/05/20 09:35:23;;;;;;;3.85;1.82;;;;;;;25.36;38.27;97057.58;1787220;80;21022;-82
2022/05/20 09:37:51;;;;;;;3.10;1.60;;;;;;;25.32;37.87;97061.30;1787244;79;21137;-83
2022/05/20 09:40:36;;;;;;;3.40;1.50;;;;;;;25.32;38.07;97043.20;1788590;80;21027;-84
2022/05/20 09:43:09;;;;;;;3.50;1.72;;;;;;;25.35;38.20;97046.67;1759266;80;21099;-81
2022/05/20 09:45:43;;;;;;;3.45;1.20;;;;;;;25.30;38.45;97038.16;1788603;80;21012;-81
2022/05/20 09:48:09;;;;;;;2.47;1.65;;;;;;;25.25;39.08;97028.03;1784598;79;21484;-82
2022/05/20 09:50:38;;;;;;;2.85;1.25;;;;;;;25.23;38.69;97030.95;1790630;80;22236;-82
2022/05/20 09:53:12;;;;;;;2.10;1.87;;;;;;;25.25;39.25;97029.36;1787924;79;21343;-82
2022/05/20 09:55:43;;;;;;;1.80;1.30;;;;;;;25.23;39.61;97026.96;1765930;80;21028;-81
2022/05/20 09:58:13;;;;;;;;;;;;;;;25.21;39.42;97023.73;1787727;80;20985;-82
2022/05/20 10:00:42;;;;;;;2.62;1.30;;;;;;;25.25;39.66;97023.51;1789592;79;20777;-82
2022/05/20 10:03:16;;;;;;;3.52;1.65;;;;;;;25.28;39.13;97019.00;1790084;80;21050;-82
2022/05/20 10:06:24;;;;;;;3.08;1.50;;;;;;;25.25;40.53;97022.18;1767609;80;21094;-81
2022/05/20 10:08:56;;;;;;;3.67;1.95;;;;;;;25.27;39.94;97009.95;1768698;80;21570;-84
2022/05/20 10:11:35;;;;;;;1.98;1.57;;;;;;;25.35;39.78;97000.13;1749999;80;21036;-84
2022/05/20 10:14:12;;;;;;;2.85;1.40;;;;;;;25.38;39.49;97004.41;1786289;79;21085;-84
2022/05/20 10:16:52;;;;;;;3.85;1.50;;;;;;;25.35;38.90;96998.27;1749188;80;20980;-84
2022/05/20 10:19:48;;;;;;;1.92;1.22;;;;;;;25.34;39.74;96998.00;1784296;80;20992;-83
2022/05/20 10:22:23;;;;;;;2.72;1.50;;;;;;;25.41;39.83;96999.10;1787800;79;21129;-84
2022/05/20 10:25:11;;;;;;;3.42;1.47;;;;;;;25.45;39.90;96997.51;1784363;79;21095;-83
2022/05/20 10:28:12;;;;;;;2.30;1.62;;;;;;;25.54;39.90;96991.94;1789117;79;21051;-83
2022/05/20 10:33:34;;;;;;;4.25;2.10;;;;;;;25.72;39.68;96987.51;1762756;79;21004;-83
2022/05/20 10:36:21;;;;;;;5.00;2.10;;;;;;;25.63;39.82;96991.70;1742383;81;21039;-84
2022/05/20 10:39:01;;;;;;;8.20;5.33;;;;;;;25.63;39.82;96991.70;1711866;82;21068;-84
2022/05/20 10:41:48;;;;;;;5.55;4.20;;;;;;;25.64;39.69;96991.97;1716367;81;21432;-84
2022/05/20 10:51:29;;;;;;;6.92;4.12;;;;;;;25.81;38.78;96988.30;1714137;82;21109;-84
2022/05/20 10:54:30;;;;;;;3.25;2.40;;;;;;;25.79;38.87;96983.25;1712789;81;21063;-84
2022/05/20 10:57:12;;;;;;;3.58;2.17;;;;;;;25.83;39.19;96982.18;1712769;81;20944;-84
2022/05/20 10:59:56;;;;;;;3.65;2.50;;;;;;;25.92;38.85;96985.94;1792253;78;21054;-84
2022/05/20 11:03:05;;;;;;;3.25;1.82;;;;;;;25.93;38.71;96973.69;1789623;79;20992;-84
2022/05/20 11:06:08;;;;;;;3.92;2.00;;;;;;;25.98;38.42;96963.03;1760945;78;21055;-84
2022/05/20 11:08:51;;;;;;;3.20;1.60;;;;;;;26.06;38.90;96963.05;1747092;79;21004;-84
2022/05/20 11:11:26;;;;;;;3.80;1.50;;;;;;;26.13;38.33;96952.91;1713061;82;21338;-84
2022/05/20 11:14:17;;;;;;;3.20;1.40;;;;;;;26.16;38.27;96954.24;1736099;80;21838;-84
2022/05/20 11:16:59;;;;;;;;;;;;;;;26.25;38.45;96948.12;1759253;79;21043;-83
2022/05/20 11:19:40;;;;;;;2.87;1.60;;;;;;;26.39;39.91;96943.61;1765014;78;20457;-82
2022/05/20 11:22:31;;;;;;;3.85;1.62;;;;;;;26.47;38.62;96937.19;1724196;79;21071;-82
2022/05/20 11:25:09;;;;;;;3.00;1.45;;;;;;;26.57;38.68;96939.05;1745426;79;21371;-82
2022/05/20 11:27:49;;;;;;;4.55;1.55;;;;;;;26.63;39.24;96938.75;1751019;81;21048;-82
2022/05/20 11:30:35;;;;;;;2.90;1.83;;;;;;;26.73;38.95;96941.94;1746015;81;21039;-82
2022/05/20 11:33:37;;;;;;;2.10;1.50;;;;;;;26.83;39.68;96935.22;1767532;79;20997;-82
2022/05/20 11:36:15;;;;;;;;;;;;;;;26.77;39.73;96940.31;1725713;81;21088;-82
2022/05/20 11:39:16;;;;;;;2.37;1.60;;;;;;;26.66;38.41;96936.08;1725637;81;20147;-82
2022/05/20 11:42:18;;;;;;;3.62;1.42;;;;;;;26.50;39.66;96943.30;1752508;80;21139;-82
2022/05/20 11:45:10;;;;;;;2.60;1.32;;;;;;;26.67;39.22;96927.01;1752051;79;21371;-82
2022/05/20 11:47:49;;;;;;;3.55;1.30;;;;;;;26.87;39.28;96924.30;1752771;80;20996;-84
2022/05/20 11:50:41;;;;;;;2.52;1.10;;;;;;;27.15;38.40;96923.39;1751384;79;21035;-88
2022/05/20 11:53:43;;;;;;;2.95;1.40;;;;;;;27.15;38.40;96923.39;1766757;80;21036;-83
2022/05/20 11:56:32;;;;;;;2.92;1.37;;;;;;;27.22;37.84;96923.91;1723431;79;21016;-84
2022/05/20 11:59:21;;;;;;;2.37;1.05;;;;;;;27.22;38.06;96922.57;1723975;79;20991;-83
2022/05/20 12:01:50;;;;;;;1.98;0.90;;;;;;;27.23;37.92;96920.16;1686788;83;21007;-83
2022/05/20 12:04:17;;;;;;;1.98;1.10;;;;;;;27.44;38.45;96922.97;1698200;82;21006;-83
2022/05/20 12:06:58;;;;;;;2.60;1.05;;;;;;;27.53;37.75;96930.41;1726834;81;21026;-83
2022/05/20 12:09:47;;;;;;;1.80;1.17;;;;;;;27.59;37.45;96926.08;1746804;80;21350;-83
2022/05/20 12:12:33;;;;;;;2.80;1.10;;;;;;;27.69;36.75;96931.93;1777600;79;20976;-83
2022/05/20 12:15:16;;;;;;;2.05;1.37;;;;;;;27.76;36.92;96936.41;1768367;77;20992;-82
2022/05/20 12:17:48;;;;;;;1.87;1.02;;;;;;;27.80;37.29;96934.23;1773548;80;21003;-82
2022/05/20 12:26:29;;;;;;;1.10;1.00;;;;;;;27.70;37.02;96926.85;1783082;80;21004;-84
2022/05/20 12:28:55;;;;;;;14.75;13.08;;;;;;;27.71;37.77;96922.56;1784755;78;21050;-85
2022/05/20 12:31:26;;;;;;;4.05;3.60;;;;;;;27.76;37.38;96913.71;1784228;79;21338;-84
2022/05/20 12:34:10;;;;;;;9.43;8.23;;;;;;;27.78;37.19;96912.89;1787571;79;21165;-85
2022/05/20 12:36:40;;;;;;;3.10;2.05;;;;;;;27.78;35.90;96924.91;1786112;77;21094;-85
2022/05/20 12:39:15;;;;;;;3.05;2.52;;;;;;;27.72;35.58;96914.81;1786377;78;21046;-85
2022/05/20 12:41:58;;;;;;;6.17;5.58;;;;;;;27.70;35.94;96912.17;1755889;80;21040;-85